createdAt,value
2022-11-26T00:00:17.122Z,15.42
2022-11-26T00:01:17.106Z,14.94
2022-11-26T00:02:17.168Z,15.13
2022-11-26T00:03:17.165Z,15.80
2022-11-26T00:04:17.035Z,15.99
2022-11-26T00:05:17.004Z,16.56
2022-11-26T00:06:17.013Z,15.89
2022-11-26T00:07:16.994Z,15.99
2022-11-26T00:08:16.944Z,16.08
2022-11-26T00:09:16.928Z,15.03
2022-11-26T00:10:16.900Z,15.13
2022-11-26T00:11:16.875Z,14.75
2022-11-26T00:12:16.852Z,14.75
2022-11-26T00:13:16.827Z,14.65
2022-11-26T00:14:16.827Z,14.75
2022-11-26T00:15:16.783Z,14.65
2022-11-26T00:16:16.812Z,14.94
2022-11-26T00:17:16.737Z,15.03
2022-11-26T00:18:16.722Z,14.75
2022-11-26T00:19:16.698Z,15.23
2022-11-26T00:20:16.676Z,15.03
2022-11-26T00:21:16.654Z,15.61
2022-11-26T00:22:16.652Z,15.99
2022-11-26T00:23:16.606Z,15.80
2022-11-26T00:24:16.587Z,16.27
2022-11-26T00:25:16.566Z,16.17
2022-11-26T00:26:16.546Z,15.99
2022-11-26T00:27:16.518Z,15.99
2022-11-26T00:28:16.501Z,16.37
2022-11-26T00:29:16.479Z,15.89
2022-11-26T00:30:16.458Z,15.99
2022-11-26T00:31:16.575Z,15.70
2022-11-26T00:32:16.408Z,16.17
2022-11-26T00:33:16.394Z,15.89
2022-11-26T00:34:16.370Z,15.99
2022-11-26T00:35:16.344Z,15.61
2022-11-26T00:36:16.319Z,14.94
2022-11-26T00:37:16.293Z,14.56
2022-11-26T00:38:16.295Z,14.36
2022-11-26T00:39:16.261Z,13.89
2022-11-26T00:40:16.241Z,13.32
2022-11-26T00:41:16.203Z,12.84
2022-11-26T00:42:16.191Z,12.55
2022-11-26T00:43:16.159Z,12.65
2022-11-26T00:44:16.143Z,12.27
2022-11-26T00:45:16.115Z,12.46
2022-11-26T00:46:16.175Z,12.27
2022-11-26T00:47:16.075Z,11.89
2022-11-26T00:48:16.053Z,11.99
2022-11-26T00:49:16.032Z,12.08
2022-11-26T00:50:16.011Z,12.56
2022-11-26T00:51:15.992Z,12.75
2022-11-26T00:52:15.967Z,12.94
2022-11-26T00:53:15.945Z,13.32
2022-11-26T00:54:15.941Z,12.94
2022-11-26T00:55:15.899Z,13.32
2022-11-26T00:56:15.874Z,13.42
2022-11-26T00:57:15.850Z,13.41
2022-11-26T00:58:15.829Z,13.13
2022-11-26T00:59:15.818Z,13.22
2022-11-26T01:00:15.788Z,12.74
2022-11-26T01:01:15.812Z,12.74
2022-11-26T01:02:15.796Z,13.03
2022-11-26T01:03:15.717Z,12.84
2022-11-26T01:04:15.699Z,12.93
2022-11-26T01:05:15.672Z,12.55
2022-11-26T01:06:15.656Z,12.84
2022-11-26T01:07:15.637Z,13.12
2022-11-26T01:08:15.604Z,12.65
2022-11-26T01:09:15.585Z,12.46
2022-11-26T01:10:15.585Z,12.37
2022-11-26T01:11:15.547Z,12.37
2022-11-26T01:12:15.524Z,12.65
2022-11-26T01:13:15.492Z,12.65
2022-11-26T01:14:15.492Z,12.55
2022-11-26T01:15:15.453Z,12.27
2022-11-26T01:16:15.461Z,11.89
2022-11-26T01:17:15.408Z,11.70
2022-11-26T01:18:15.382Z,11.79
2022-11-26T01:19:15.368Z,11.98
2022-11-26T01:20:15.342Z,12.37
2022-11-26T01:21:15.313Z,11.98
2022-11-26T01:22:15.298Z,11.98
2022-11-26T01:23:15.274Z,12.46
2022-11-26T01:24:15.253Z,12.27
2022-11-26T01:25:15.223Z,12.65
2022-11-26T01:26:15.226Z,12.18
2022-11-26T01:27:15.179Z,12.18
2022-11-26T01:28:15.161Z,12.27
2022-11-26T01:29:15.135Z,11.89
2022-11-26T01:30:15.117Z,11.89
2022-11-26T01:31:15.139Z,12.18
2022-11-26T01:32:15.074Z,11.98
2022-11-26T01:33:15.052Z,11.89
2022-11-26T01:34:15.028Z,12.37
2022-11-26T01:35:15.001Z,11.79
2022-11-26T01:36:14.984Z,11.79
2022-11-26T01:37:14.955Z,11.70
2022-11-26T01:38:14.945Z,11.60
2022-11-26T01:39:14.917Z,11.41
2022-11-26T01:40:14.900Z,11.32
2022-11-26T01:41:14.870Z,11.22
2022-11-26T01:42:14.868Z,11.22
2022-11-26T01:43:14.826Z,11.51
2022-11-26T01:44:14.809Z,11.41
2022-11-26T01:45:14.781Z,11.79
2022-11-26T01:46:14.792Z,11.79
2022-11-26T01:47:14.734Z,12.08
2022-11-26T01:48:14.712Z,12.08
2022-11-26T01:49:14.688Z,12.18
2022-11-26T01:50:14.670Z,11.79
2022-11-26T01:51:14.640Z,11.13
2022-11-26T01:52:14.623Z,11.41
2022-11-26T01:53:14.598Z,11.41
2022-11-26T01:54:14.578Z,11.70
2022-11-26T01:55:14.555Z,12.08
2022-11-26T01:56:14.540Z,12.37
2022-11-26T01:57:14.513Z,11.70
2022-11-26T01:58:14.509Z,11.60
2022-11-26T01:59:14.468Z,11.60
2022-11-26T02:00:14.451Z,11.32
2022-11-26T02:01:14.507Z,11.03
2022-11-26T02:02:14.467Z,11.41
2022-11-26T02:03:14.377Z,11.51
2022-11-26T02:04:14.358Z,11.22
2022-11-26T02:05:14.335Z,11.22
2022-11-26T02:06:14.312Z,11.03
2022-11-26T02:07:14.318Z,10.75
2022-11-26T02:08:14.266Z,10.75
2022-11-26T02:09:14.243Z,10.46
2022-11-26T02:10:14.228Z,10.46
2022-11-26T02:11:14.194Z,10.46
2022-11-26T02:12:14.176Z,10.27
2022-11-26T02:13:14.157Z,10.17
2022-11-26T02:14:14.154Z,10.17
2022-11-26T02:15:14.107Z,10.08
2022-11-26T02:16:14.136Z,10.08
2022-11-26T02:17:14.061Z,10.46
2022-11-26T02:18:14.038Z,10.27
2022-11-26T02:19:14.024Z,10.08
2022-11-26T02:20:14.002Z,10.17
2022-11-26T02:21:13.970Z,9.60
2022-11-26T02:22:13.951Z,9.51
2022-11-26T02:23:13.924Z,9.22
2022-11-26T02:24:13.910Z,9.03
2022-11-26T02:25:13.882Z,9.13
2022-11-26T02:26:13.875Z,9.42
2022-11-26T02:27:13.835Z,8.84
2022-11-26T02:28:13.819Z,9.13
2022-11-26T02:29:13.788Z,8.65
2022-11-26T02:30:13.795Z,9.13
2022-11-26T02:31:13.866Z,9.22
2022-11-26T02:32:13.751Z,9.03
2022-11-26T02:33:13.703Z,8.94
2022-11-26T02:34:13.683Z,9.13
2022-11-26T02:35:13.652Z,9.13
2022-11-26T02:36:13.637Z,9.32
2022-11-26T02:37:13.607Z,9.61
2022-11-26T02:38:13.588Z,9.32
2022-11-26T02:39:13.567Z,9.70
2022-11-26T02:40:13.543Z,9.80
2022-11-26T02:41:13.525Z,9.99
2022-11-26T02:42:13.497Z,9.69
2022-11-26T02:43:13.473Z,9.60
2022-11-26T02:44:13.453Z,9.22
2022-11-26T02:45:13.428Z,9.69
2022-11-26T02:46:13.475Z,9.70
2022-11-26T02:47:13.382Z,9.22
2022-11-26T02:48:13.368Z,9.22
2022-11-26T02:49:13.337Z,9.89
2022-11-26T02:50:13.325Z,9.61
2022-11-26T02:51:13.299Z,9.80
2022-11-26T02:52:13.272Z,9.70
2022-11-26T02:53:13.253Z,9.51
2022-11-26T02:54:13.230Z,10.08
2022-11-26T02:55:13.207Z,9.89
2022-11-26T02:56:13.184Z,10.27
2022-11-26T02:57:13.161Z,10.94
2022-11-26T02:58:13.141Z,10.56
2022-11-26T02:59:13.115Z,10.94
2022-11-26T03:00:13.091Z,10.56
2022-11-26T03:01:13.118Z,10.94
2022-11-26T03:02:13.068Z,11.03
2022-11-26T03:03:13.019Z,11.98
2022-11-26T03:04:13.068Z,12.55
2022-11-26T03:05:12.984Z,12.37
2022-11-26T03:06:12.961Z,12.84
2022-11-26T03:07:12.985Z,12.84
2022-11-26T03:08:12.917Z,13.41
2022-11-26T03:09:12.887Z,14.26
2022-11-26T03:10:12.867Z,14.26
2022-11-26T03:11:12.840Z,14.07
2022-11-26T03:12:12.908Z,14.07
2022-11-26T03:13:12.799Z,14.17
2022-11-26T03:14:12.781Z,13.60
2022-11-26T03:15:12.753Z,13.60
2022-11-26T03:16:12.758Z,13.41
2022-11-26T03:17:12.710Z,13.51
2022-11-26T03:18:12.713Z,13.40
2022-11-26T03:19:12.667Z,13.03
2022-11-26T03:20:12.641Z,12.74
2022-11-26T03:21:12.623Z,13.22
2022-11-26T03:22:12.596Z,12.55
2022-11-26T03:23:12.574Z,12.46
2022-11-26T03:24:12.558Z,12.08
2022-11-26T03:25:12.535Z,11.98
2022-11-26T03:26:12.510Z,11.69
2022-11-26T03:27:12.480Z,11.69
2022-11-26T03:28:12.465Z,11.41
2022-11-26T03:29:12.442Z,10.74
2022-11-26T03:30:12.416Z,10.64
2022-11-26T03:31:12.437Z,10.17
2022-11-26T03:32:12.372Z,10.27
2022-11-26T03:33:12.345Z,9.79
2022-11-26T03:34:12.348Z,9.60
2022-11-26T03:35:12.308Z,9.22
2022-11-26T03:36:12.278Z,9.89
2022-11-26T03:37:12.259Z,9.22
2022-11-26T03:38:12.245Z,9.12
2022-11-26T03:39:12.209Z,8.75
2022-11-26T03:40:12.199Z,8.56
2022-11-26T03:41:12.168Z,8.65
2022-11-26T03:42:12.144Z,8.75
2022-11-26T03:43:12.126Z,8.65
2022-11-26T03:44:12.101Z,8.65
2022-11-26T03:45:12.074Z,8.36
2022-11-26T03:46:12.107Z,8.27
2022-11-26T03:47:12.031Z,7.99
2022-11-26T03:48:12.016Z,8.65
2022-11-26T03:49:11.982Z,8.84
2022-11-26T03:50:11.984Z,8.65
2022-11-26T03:51:11.940Z,8.94
2022-11-26T03:52:11.919Z,8.94
2022-11-26T03:53:11.892Z,8.94
2022-11-26T03:54:11.884Z,9.31
2022-11-26T03:55:11.852Z,9.31
2022-11-26T03:56:11.838Z,9.32
2022-11-26T03:57:11.803Z,9.70
2022-11-26T03:58:11.784Z,9.79
2022-11-26T03:59:11.761Z,9.61
2022-11-26T04:00:11.748Z,10.17
2022-11-26T04:01:11.778Z,10.17
2022-11-26T04:02:11.694Z,10.17
2022-11-26T04:03:11.698Z,10.36
2022-11-26T04:04:11.649Z,10.08
2022-11-26T04:05:11.624Z,10.55
2022-11-26T04:06:11.623Z,10.36
2022-11-26T04:07:11.611Z,10.36
2022-11-26T04:08:11.565Z,10.36
2022-11-26T04:09:11.528Z,10.46
2022-11-26T04:10:11.513Z,10.93
2022-11-26T04:11:11.487Z,10.83
2022-11-26T04:12:11.465Z,10.08
2022-11-26T04:13:11.442Z,10.08
2022-11-26T04:14:11.425Z,9.79
2022-11-26T04:15:11.402Z,10.17
2022-11-26T04:16:11.432Z,9.60
2022-11-26T04:17:11.350Z,9.31
2022-11-26T04:18:11.330Z,9.41
2022-11-26T04:19:11.319Z,9.41
2022-11-26T04:20:11.287Z,9.31
2022-11-26T04:21:11.259Z,9.22
2022-11-26T04:22:11.260Z,9.22
2022-11-26T04:23:11.214Z,9.12
2022-11-26T04:24:11.191Z,9.03
2022-11-26T04:25:11.174Z,9.31
2022-11-26T04:26:11.148Z,9.12
2022-11-26T04:27:11.130Z,9.22
2022-11-26T04:28:11.108Z,8.75
2022-11-26T04:29:11.078Z,9.03
2022-11-26T04:30:11.062Z,9.31
2022-11-26T04:31:11.035Z,9.60
2022-11-26T04:32:11.074Z,9.41
2022-11-26T04:33:10.995Z,9.60
2022-11-26T04:34:10.974Z,10.27
2022-11-26T04:35:10.947Z,10.17
2022-11-26T04:36:10.922Z,10.17
2022-11-26T04:37:10.901Z,10.17
2022-11-26T04:38:10.902Z,10.74
2022-11-26T04:39:10.852Z,11.41
2022-11-26T04:40:10.834Z,11.41
2022-11-26T04:41:10.804Z,11.79
2022-11-26T04:42:10.790Z,11.69
2022-11-26T04:43:10.761Z,11.88
2022-11-26T04:44:10.741Z,11.88
2022-11-26T04:45:10.714Z,11.60
2022-11-26T04:46:10.748Z,11.41
2022-11-26T04:47:10.669Z,11.88
2022-11-26T04:48:10.650Z,12.17
2022-11-26T04:49:10.621Z,12.07
2022-11-26T04:50:10.610Z,11.41
2022-11-26T04:51:10.580Z,11.22
2022-11-26T04:52:10.566Z,11.22
2022-11-26T04:53:10.535Z,11.22
2022-11-26T04:54:13.208Z,11.79
2022-11-26T04:55:10.492Z,12.07
2022-11-26T04:56:10.468Z,11.69
2022-11-26T04:57:10.444Z,12.26
2022-11-26T04:58:10.428Z,12.26
2022-11-26T04:59:10.399Z,12.45
2022-11-26T05:00:10.383Z,12.07
2022-11-26T05:01:10.386Z,11.88
2022-11-26T05:02:10.340Z,11.98
2022-11-26T05:03:10.427Z,11.79
2022-11-26T05:04:10.284Z,11.50
2022-11-26T05:05:10.261Z,11.60
2022-11-26T05:06:10.240Z,12.26
2022-11-26T05:07:10.258Z,12.17
2022-11-26T05:08:10.198Z,12.26
2022-11-26T05:09:10.172Z,12.55
2022-11-26T05:10:10.169Z,12.84
2022-11-26T05:11:10.129Z,13.40
2022-11-26T05:12:10.109Z,14.26
2022-11-26T05:13:10.085Z,13.78
2022-11-26T05:14:10.063Z,13.97
2022-11-26T05:15:10.035Z,13.69
2022-11-26T05:16:10.059Z,13.12
2022-11-26T05:17:09.999Z,13.97
2022-11-26T05:18:09.973Z,14.17
2022-11-26T05:19:09.944Z,14.36
2022-11-26T05:20:09.919Z,14.07
2022-11-26T05:21:09.897Z,13.97
2022-11-26T05:22:09.874Z,14.45
2022-11-26T05:23:09.851Z,14.54
2022-11-26T05:24:09.831Z,14.54
2022-11-26T05:25:09.805Z,14.64
2022-11-26T05:26:09.805Z,14.17
2022-11-26T05:27:09.759Z,14.36
2022-11-26T05:28:09.748Z,14.54
2022-11-26T05:29:09.714Z,14.17
2022-11-26T05:30:09.700Z,14.73
2022-11-26T05:31:09.667Z,14.36
2022-11-26T05:32:09.728Z,14.54
2022-11-26T05:33:09.626Z,14.54
2022-11-26T05:34:09.606Z,14.45
2022-11-26T05:35:09.587Z,15.11
2022-11-26T05:36:09.568Z,16.06
2022-11-26T05:37:09.535Z,15.78
2022-11-26T05:38:09.516Z,15.78
2022-11-26T05:39:09.491Z,16.06
2022-11-26T05:40:09.471Z,16.16
2022-11-26T05:41:09.444Z,15.97
2022-11-26T05:42:09.787Z,15.40
2022-11-26T05:43:09.408Z,15.02
2022-11-26T05:44:09.381Z,14.73
2022-11-26T05:45:09.356Z,14.54
2022-11-26T05:46:09.446Z,14.17
2022-11-26T05:47:09.312Z,14.36
2022-11-26T05:48:09.293Z,14.17
2022-11-26T05:49:09.267Z,14.07
2022-11-26T05:50:09.246Z,14.36
2022-11-26T05:51:09.217Z,14.36
2022-11-26T05:52:09.193Z,13.88
2022-11-26T05:53:09.170Z,13.69
2022-11-26T05:54:09.151Z,13.31
2022-11-26T05:55:09.122Z,13.59
2022-11-26T05:56:09.102Z,13.49
2022-11-26T05:57:09.078Z,12.92
2022-11-26T05:58:09.079Z,12.35
2022-11-26T05:59:09.030Z,12.07
2022-11-26T06:00:09.012Z,11.60
2022-11-26T06:01:08.992Z,11.50
2022-11-26T06:02:09.111Z,11.22
2022-11-26T06:03:09.085Z,11.79
2022-11-26T06:04:08.918Z,12.07
2022-11-26T06:05:08.900Z,12.36
2022-11-26T06:06:08.880Z,12.07
2022-11-26T06:07:08.948Z,12.17
2022-11-26T06:08:08.823Z,12.07
2022-11-26T06:09:08.808Z,11.79
2022-11-26T06:10:08.782Z,11.98
2022-11-26T06:11:08.759Z,12.36
2022-11-26T06:12:08.741Z,12.17
2022-11-26T06:13:08.707Z,12.35
2022-11-26T06:14:08.718Z,11.50
2022-11-26T06:15:08.673Z,11.60
2022-11-26T06:16:08.685Z,11.31
2022-11-26T06:17:08.622Z,11.50
2022-11-26T06:18:08.600Z,11.69
2022-11-26T06:19:08.573Z,11.11
2022-11-26T06:20:08.552Z,11.02
2022-11-26T06:21:08.525Z,10.64
2022-11-26T06:22:08.507Z,10.55
2022-11-26T06:23:08.475Z,11.02
2022-11-26T06:24:08.463Z,10.55
2022-11-26T06:25:08.433Z,10.36
2022-11-26T06:26:08.414Z,10.17
2022-11-26T06:27:08.384Z,10.17
2022-11-26T06:28:08.371Z,9.79
2022-11-26T06:29:08.352Z,10.45
2022-11-26T06:30:08.343Z,10.07
2022-11-26T06:31:08.381Z,10.17
2022-11-26T06:32:08.271Z,10.17
2022-11-26T06:33:08.249Z,10.36
2022-11-26T06:34:08.225Z,10.27
2022-11-26T06:35:08.198Z,10.93
2022-11-26T06:36:08.181Z,11.03
2022-11-26T06:37:08.162Z,11.03
2022-11-26T06:38:08.139Z,10.74
2022-11-26T06:39:08.110Z,10.46
2022-11-26T06:40:08.091Z,10.46
2022-11-26T06:41:08.065Z,10.17
2022-11-26T06:42:08.044Z,10.55
2022-11-26T06:43:08.014Z,10.74
2022-11-26T06:44:08.008Z,11.02
2022-11-26T06:45:07.974Z,11.11
2022-11-26T06:46:08.092Z,10.74
2022-11-26T06:47:07.924Z,10.36
2022-11-26T06:48:07.908Z,10.36
2022-11-26T06:49:07.875Z,9.31
2022-11-26T06:50:10.701Z,9.31
2022-11-26T06:51:07.834Z,8.74
2022-11-26T06:52:07.808Z,9.03
2022-11-26T06:53:07.786Z,8.74
2022-11-26T06:54:07.757Z,8.55
2022-11-26T06:55:07.732Z,8.55
2022-11-26T06:56:07.721Z,8.64
2022-11-26T06:57:07.692Z,8.55
2022-11-26T06:58:07.671Z,8.45
2022-11-26T06:59:07.647Z,8.74
2022-11-26T07:00:07.631Z,8.45
2022-11-26T07:01:07.683Z,8.45
2022-11-26T07:02:07.690Z,8.64
2022-11-26T07:03:07.553Z,8.17
2022-11-26T07:04:07.534Z,8.27
2022-11-26T07:05:07.505Z,8.65
2022-11-26T07:06:07.481Z,8.84
2022-11-26T07:07:07.525Z,8.65
2022-11-26T07:08:07.436Z,8.64
2022-11-26T07:09:07.413Z,8.75
2022-11-26T07:10:07.394Z,8.65
2022-11-26T07:11:07.367Z,8.84
2022-11-26T07:12:07.346Z,8.84
2022-11-26T07:13:07.315Z,8.94
2022-11-26T07:14:07.302Z,9.31
2022-11-26T07:15:07.277Z,9.41
2022-11-26T07:16:07.387Z,9.60
2022-11-26T07:17:07.230Z,9.79
2022-11-26T07:18:07.230Z,9.79
2022-11-26T07:19:07.183Z,10.36
2022-11-26T07:20:07.159Z,10.55
2022-11-26T07:21:07.131Z,10.83
2022-11-26T07:22:07.115Z,11.22
2022-11-26T07:23:07.097Z,11.22
2022-11-26T07:24:07.067Z,11.31
2022-11-26T07:25:12.275Z,10.83
2022-11-26T07:26:07.035Z,11.03
2022-11-26T07:27:06.997Z,11.69
2022-11-26T07:28:06.975Z,11.69
2022-11-26T07:29:06.955Z,11.88
2022-11-26T07:30:06.928Z,12.17
2022-11-26T07:31:10.408Z,13.02
2022-11-26T07:32:06.885Z,13.02
2022-11-26T07:33:06.865Z,13.50
2022-11-26T07:34:06.860Z,13.78
2022-11-26T07:35:06.819Z,14.07
2022-11-26T07:36:06.794Z,14.36
2022-11-26T07:37:06.773Z,14.07
2022-11-26T07:38:06.743Z,14.54
2022-11-26T07:39:06.726Z,14.64
2022-11-26T07:40:06.707Z,14.36
2022-11-26T07:41:06.674Z,14.07
2022-11-26T07:42:06.684Z,14.45
2022-11-26T07:43:06.629Z,14.92
2022-11-26T07:44:06.609Z,14.83
2022-11-26T07:45:06.606Z,15.40
2022-11-26T07:46:06.617Z,16.06
2022-11-26T07:47:06.535Z,16.45
2022-11-26T07:48:06.515Z,16.06
2022-11-26T07:49:06.494Z,15.31
2022-11-26T07:50:06.493Z,14.92
2022-11-26T07:51:06.448Z,15.31
2022-11-26T07:52:06.430Z,15.11
2022-11-26T07:53:06.398Z,15.31
2022-11-26T07:54:06.381Z,15.21
2022-11-26T07:55:09.552Z,16.54
2022-11-26T07:56:06.351Z,17.68
2022-11-26T07:57:06.308Z,17.68
2022-11-26T07:58:06.294Z,17.68
2022-11-26T07:59:06.263Z,17.50
2022-11-26T08:00:06.242Z,16.93
2022-11-26T08:01:06.246Z,18.93
2022-11-26T08:02:06.254Z,19.40
2022-11-26T08:03:06.190Z,20.54
2022-11-26T08:04:06.156Z,21.97
2022-11-26T08:05:06.135Z,22.16
2022-11-26T08:06:06.131Z,22.26
2022-11-26T08:07:06.083Z,22.35
2022-11-26T08:08:06.132Z,22.26
2022-11-26T08:09:06.039Z,22.92
2022-11-26T08:10:06.025Z,24.16
2022-11-26T08:11:06.003Z,24.07
2022-11-26T08:12:05.978Z,24.46
2022-11-26T08:13:05.953Z,28.72
2022-11-26T08:14:05.934Z,31.02
2022-11-26T08:15:05.908Z,32.07
2022-11-26T08:16:05.957Z,34.36
2022-11-26T08:17:05.867Z,35.21
2022-11-26T08:18:05.850Z,36.64
2022-11-26T08:19:05.823Z,35.40
2022-11-26T08:20:05.803Z,33.40
2022-11-26T08:21:05.780Z,32.26
2022-11-26T08:22:05.781Z,31.29
2022-11-26T08:23:05.735Z,31.20
2022-11-26T08:24:05.725Z,29.96
2022-11-26T08:25:05.701Z,28.92
2022-11-26T08:26:22.613Z,28.06
2022-11-26T08:27:05.649Z,28.27
2022-11-26T08:28:05.635Z,27.98
2022-11-26T08:29:05.615Z,29.60
2022-11-26T08:30:05.594Z,31.21
2022-11-26T08:31:05.632Z,30.36
2022-11-26T08:32:05.619Z,30.36
2022-11-26T08:33:05.523Z,32.35
2022-11-26T08:34:05.505Z,32.83
2022-11-26T08:35:05.527Z,34.64
2022-11-26T08:36:07.634Z,34.26
2022-11-26T08:37:05.437Z,33.88
2022-11-26T08:38:05.444Z,34.55
2022-11-26T08:39:05.404Z,34.55
2022-11-26T08:40:05.380Z,33.88
2022-11-26T08:41:05.358Z,32.45
2022-11-26T08:42:05.338Z,31.69
2022-11-26T08:43:05.313Z,31.87
2022-11-26T08:44:07.074Z,31.31
2022-11-26T08:45:05.273Z,30.65
2022-11-26T08:46:05.317Z,30.44
2022-11-26T08:47:05.225Z,29.69
2022-11-26T08:48:05.212Z,29.69
2022-11-26T08:49:05.182Z,29.50
2022-11-26T08:50:05.171Z,29.77
2022-11-26T08:51:05.139Z,28.74
2022-11-26T08:52:05.122Z,28.45
2022-11-26T08:53:05.097Z,28.08
2022-11-26T08:54:05.112Z,29.12
2022-11-26T08:55:05.059Z,31.88
2022-11-26T08:56:05.034Z,32.26
2022-11-26T08:57:05.015Z,31.98
2022-11-26T08:58:04.994Z,32.74
2022-11-26T08:59:04.970Z,32.55
2022-11-26T09:00:04.953Z,32.66
2022-11-26T09:01:05.022Z,34.09
2022-11-26T09:02:04.904Z,39.51
2022-11-26T09:03:04.937Z,40.94
2022-11-26T09:04:04.882Z,42.37
2022-11-26T09:05:04.855Z,41.71
2022-11-26T09:06:04.833Z,40.20
2022-11-26T09:07:04.804Z,41.06
2022-11-26T09:08:04.837Z,45.75
2022-11-26T09:09:04.785Z,52.61
2022-11-26T09:10:04.765Z,55.00
2022-11-26T09:11:04.721Z,56.90
2022-11-26T09:12:04.703Z,57.95
2022-11-26T09:13:04.681Z,60.75
2022-11-26T09:14:04.669Z,66.38
2022-11-26T09:15:04.675Z,61.29
2022-11-26T09:16:04.686Z,60.08
2022-11-26T09:17:04.677Z,62.91
2022-11-26T09:18:04.593Z,61.04
2022-11-26T09:19:04.570Z,63.51
2022-11-26T09:20:04.554Z,61.86
2022-11-26T09:21:04.528Z,61.86
2022-11-26T09:22:04.513Z,60.33
2022-11-26T09:23:04.492Z,58.52
2022-11-26T09:24:04.479Z,56.87
2022-11-26T09:25:04.453Z,51.54
2022-11-26T09:26:04.447Z,49.26
2022-11-26T09:27:08.115Z,47.54
2022-11-26T09:28:04.392Z,45.73
2022-11-26T09:29:04.381Z,45.25
2022-11-26T09:30:04.363Z,45.63
2022-11-26T09:31:04.334Z,46.80
2022-11-26T09:33:04.377Z,48.30
2022-11-26T09:34:04.282Z,49.16
2022-11-26T09:35:04.256Z,49.18
2022-11-26T09:36:04.242Z,48.23
2022-11-26T09:37:04.215Z,48.42
2022-11-26T09:38:04.198Z,50.01
2022-11-26T09:39:04.183Z,49.56
2022-11-26T09:40:04.163Z,49.28
2022-11-26T09:41:04.135Z,49.47
2022-11-26T09:42:04.150Z,52.45
2022-11-26T09:43:04.096Z,57.70
2022-11-26T09:44:04.078Z,58.36
2022-11-26T09:45:04.060Z,61.51
2022-11-26T09:46:04.100Z,61.83
2022-11-26T09:47:12.055Z,69.27
2022-11-26T09:48:04.008Z,69.17
2022-11-26T09:49:05.391Z,69.56
2022-11-26T09:50:03.975Z,65.52
2022-11-26T09:51:03.943Z,65.83
2022-11-26T09:52:03.926Z,66.60
2022-11-26T09:53:03.910Z,67.83
2022-11-26T09:54:03.889Z,68.12
2022-11-26T09:55:03.867Z,67.17
2022-11-26T09:56:03.854Z,65.33
2022-11-26T09:57:03.827Z,64.09
2022-11-26T09:58:03.908Z,64.75
2022-11-26T09:59:03.804Z,63.80
2022-11-26T10:00:03.775Z,62.94
2022-11-26T10:01:03.777Z,62.97
2022-11-26T10:02:03.860Z,66.18
2022-11-26T10:03:03.718Z,63.60
2022-11-26T10:04:03.696Z,62.94
2022-11-26T10:05:03.676Z,61.51
2022-11-26T10:06:03.663Z,60.94
2022-11-26T10:07:03.645Z,60.75
2022-11-26T10:08:03.637Z,61.89
2022-11-26T10:09:03.604Z,61.51
2022-11-26T10:10:03.585Z,60.36
2022-11-26T10:11:04.220Z,60.30
2022-11-26T10:12:03.558Z,62.37
2022-11-26T10:13:18.392Z,61.80
2022-11-26T10:14:03.559Z,61.80
2022-11-26T10:15:03.489Z,62.02
2022-11-26T10:16:03.556Z,63.45
2022-11-26T10:17:03.454Z,62.94
2022-11-26T10:18:03.435Z,63.45
2022-11-26T10:19:03.426Z,63.92
2022-11-26T10:20:03.397Z,64.09
2022-11-26T10:21:03.385Z,59.31
2022-11-26T10:22:03.365Z,58.75
2022-11-26T10:23:03.335Z,58.75
2022-11-26T10:24:03.325Z,58.17
2022-11-26T10:25:03.301Z,58.07
2022-11-26T10:26:03.283Z,59.16
2022-11-26T10:27:03.259Z,60.58
2022-11-26T10:28:03.249Z,62.30
2022-11-26T10:29:03.225Z,63.26
2022-11-26T10:30:03.228Z,64.56
2022-11-26T10:31:03.182Z,62.21
2022-11-26T10:32:03.267Z,64.97
2022-11-26T10:33:03.150Z,66.31
2022-11-26T10:34:03.135Z,67.40
2022-11-26T10:35:03.108Z,68.16
2022-11-26T10:36:03.102Z,70.22
2022-11-26T10:37:03.072Z,69.59
2022-11-26T10:38:03.060Z,67.36
2022-11-26T10:39:03.037Z,66.82
2022-11-26T10:40:07.066Z,69.65
2022-11-26T10:41:03.003Z,65.45
2022-11-26T10:42:02.992Z,65.07
2022-11-26T10:43:02.970Z,64.78
2022-11-26T10:44:02.949Z,66.78
2022-11-26T10:45:02.928Z,65.26
2022-11-26T10:46:03.009Z,66.98
2022-11-26T10:47:02.890Z,64.88
2022-11-26T10:48:02.884Z,62.21
2022-11-26T10:49:02.858Z,62.49
2022-11-26T10:50:19.108Z,61.92
2022-11-26T10:51:02.833Z,64.62
2022-11-26T10:52:02.803Z,66.53
2022-11-26T10:53:02.782Z,70.26
2022-11-26T10:54:02.767Z,72.45
2022-11-26T10:55:02.751Z,72.97
2022-11-26T10:56:02.730Z,77.65
2022-11-26T10:57:02.710Z,78.13
2022-11-26T10:58:02.736Z,80.04
2022-11-26T10:59:02.674Z,80.04
2022-11-26T11:00:02.656Z,78.41
2022-11-26T11:01:02.687Z,75.70
2022-11-26T11:02:02.706Z,74.08
2022-11-26T11:03:02.596Z,72.83
2022-11-26T11:04:09.744Z,71.02
2022-11-26T11:05:02.559Z,69.46
2022-11-26T11:06:02.549Z,68.92
2022-11-26T11:07:05.210Z,68.73
2022-11-26T11:08:02.590Z,70.03
2022-11-26T11:09:02.488Z,66.50
2022-11-26T11:10:02.469Z,64.59
2022-11-26T11:11:02.447Z,64.02
2022-11-26T11:12:02.431Z,64.88
2022-11-26T11:13:02.409Z,65.17
2022-11-26T11:14:02.396Z,64.12
2022-11-26T11:15:02.377Z,64.21
2022-11-26T11:16:02.423Z,64.59
2022-11-26T11:17:02.334Z,64.78
2022-11-26T11:18:02.341Z,64.12
2022-11-26T11:19:02.293Z,62.21
2022-11-26T11:20:02.293Z,61.83
2022-11-26T11:21:02.257Z,61.44
2022-11-26T11:22:02.238Z,60.78
2022-11-26T11:23:02.219Z,60.97
2022-11-26T11:24:08.597Z,61.83
2022-11-26T11:25:02.179Z,64.50
2022-11-26T11:26:02.169Z,65.83
2022-11-26T11:27:02.141Z,64.69
2022-11-26T11:28:02.125Z,64.50
2022-11-26T11:29:02.110Z,63.45
2022-11-26T11:30:02.092Z,63.54
2022-11-26T11:31:02.071Z,63.35
2022-11-26T11:32:02.224Z,62.30
2022-11-26T11:33:02.029Z,62.97
2022-11-26T11:34:02.030Z,62.40
2022-11-26T11:35:01.989Z,63.35
2022-11-26T11:36:01.973Z,64.21
2022-11-26T11:37:01.943Z,63.45
2022-11-26T11:38:01.931Z,64.40
2022-11-26T11:39:01.918Z,64.21
2022-11-26T11:40:01.889Z,64.53
2022-11-26T11:41:01.877Z,66.44
2022-11-26T11:42:01.856Z,66.82
2022-11-26T11:43:01.843Z,67.46
2022-11-26T11:44:01.817Z,65.48
2022-11-26T11:45:01.793Z,65.96
2022-11-26T11:46:01.836Z,66.41
2022-11-26T11:47:01.751Z,64.21
2022-11-26T11:48:01.739Z,63.54
2022-11-26T11:49:01.710Z,63.16
2022-11-26T11:50:01.719Z,63.26
2022-11-26T11:51:01.679Z,62.68
2022-11-26T11:52:01.662Z,63.29
2022-11-26T11:53:01.637Z,63.96
2022-11-26T11:54:01.623Z,64.62
2022-11-26T11:55:01.603Z,67.97
2022-11-26T11:56:02.833Z,69.21
2022-11-26T11:57:01.559Z,71.21
2022-11-26T11:58:01.545Z,71.88
2022-11-26T11:59:01.537Z,70.54
2022-11-26T12:00:01.509Z,70.45
2022-11-26T12:01:01.493Z,69.31
2022-11-26T12:02:01.507Z,69.02
2022-11-26T12:03:01.445Z,69.02
2022-11-26T12:04:01.509Z,69.24
2022-11-26T12:05:01.520Z,72.78
2022-11-26T12:06:01.409Z,75.35
2022-11-26T12:07:01.372Z,75.64
2022-11-26T12:08:01.419Z,76.35
2022-11-26T12:09:01.332Z,76.92
2022-11-26T12:10:01.347Z,80.17
2022-11-26T12:11:01.302Z,83.04
2022-11-26T12:12:01.282Z,84.95
2022-11-26T12:13:01.257Z,83.42
2022-11-26T12:14:01.251Z,82.28
2022-11-26T12:15:01.218Z,83.17
2022-11-26T12:16:01.208Z,84.38
2022-11-26T12:17:01.257Z,82.56
2022-11-26T12:18:01.171Z,81.99
2022-11-26T12:19:01.148Z,83.61
2022-11-26T12:20:01.136Z,84.95
2022-11-26T12:21:01.113Z,85.47
2022-11-26T12:22:01.125Z,86.33
2022-11-26T12:23:01.082Z,81.70
2022-11-26T12:24:01.058Z,80.46
2022-11-26T12:25:01.039Z,80.17
2022-11-26T12:26:01.020Z,79.88
2022-11-26T12:27:01.008Z,78.89
2022-11-26T12:28:00.994Z,78.83
2022-11-26T12:29:00.976Z,80.27
2022-11-26T12:30:00.955Z,79.98
2022-11-26T12:31:00.936Z,80.55
2022-11-26T12:32:01.013Z,80.07
2022-11-26T12:33:00.902Z,78.41
2022-11-26T12:34:04.171Z,77.55
2022-11-26T12:35:00.879Z,77.84
2022-11-26T12:36:00.844Z,76.98
2022-11-26T12:37:00.823Z,75.74
2022-11-26T12:38:00.832Z,75.83
2022-11-26T12:39:00.791Z,76.21
2022-11-26T12:40:00.776Z,74.21
2022-11-26T12:41:00.751Z,73.44
2022-11-26T12:42:00.735Z,73.25
2022-11-26T12:43:00.714Z,73.07
2022-11-26T12:44:00.698Z,72.30
2022-11-26T12:45:00.675Z,67.81
2022-11-26T12:46:00.804Z,69.78
2022-11-26T12:47:00.635Z,68.63
2022-11-26T12:48:00.626Z,66.35
2022-11-26T12:49:00.601Z,64.91
2022-11-26T12:50:00.584Z,64.15
2022-11-26T12:51:00.559Z,64.25
2022-11-26T12:52:00.545Z,64.15
2022-11-26T12:53:00.522Z,63.96
2022-11-26T12:54:00.532Z,62.91
2022-11-26T12:55:00.481Z,62.81
2022-11-26T12:56:00.469Z,63.00
2022-11-26T12:57:00.446Z,64.25